createdAt,value
2018-03-26T00:01:24.213Z,97366.74
2018-03-26T00:03:51.748Z,97368.41
2018-03-26T00:06:19.336Z,97360.94
2018-03-26T00:08:47.067Z,97364.25
2018-03-26T00:11:14.771Z,97366.18
2018-03-26T00:13:42.634Z,97361.92
2018-03-26T00:16:10.365Z,97364.19
2018-03-26T00:18:38.199Z,97363.84
2018-03-26T00:21:05.928Z,97367.78
2018-03-26T00:23:33.590Z,97369.41
2018-03-26T00:26:01.588Z,97372.45
2018-03-26T00:28:29.889Z,97375.03
2018-03-26T00:30:57.662Z,97370.17
2018-03-26T00:33:25.413Z,97379.94
2018-03-26T00:35:53.627Z,97382.08
2018-03-26T00:38:21.177Z,97378.17
2018-03-26T00:40:49.108Z,97383.23
2018-03-26T00:43:17.048Z,97382.34
2018-03-26T00:45:44.859Z,97380.36
2018-03-26T00:48:12.608Z,97385.64
2018-03-26T00:50:40.368Z,97383.33
2018-03-26T00:53:08.232Z,97397.47
2018-03-26T00:55:35.923Z,97388.91
2018-03-26T00:58:03.903Z,97392.41
2018-03-26T01:00:31.864Z,97389.27
2018-03-26T01:02:59.648Z,97391.41
2018-03-26T01:05:27.204Z,97398.48
2018-03-26T01:07:55.282Z,97389.88
2018-03-26T01:10:23.097Z,97389.98
2018-03-26T01:12:50.724Z,97393.59
2018-03-26T01:15:18.798Z,97390.31
2018-03-26T01:17:46.408Z,97395.83
2018-03-26T01:20:14.007Z,97401.27
2018-03-26T01:22:42.178Z,97393.86
2018-03-26T01:25:09.908Z,97395.19
2018-03-26T01:27:37.489Z,97393.64
2018-03-26T01:30:05.433Z,97396.42
2018-03-26T01:32:33.248Z,97399.26
2018-03-26T01:35:01.054Z,97396.52
2018-03-26T01:37:28.767Z,97398.13
2018-03-26T01:39:56.939Z,97402.08
2018-03-26T01:42:24.844Z,97403.27
2018-03-26T01:44:53.289Z,97399.74
2018-03-26T01:47:21.183Z,97406.55
2018-03-26T01:49:48.744Z,97404.88
2018-03-26T01:52:17.818Z,97407.61
2018-03-26T01:54:45.482Z,97406.72
2018-03-26T01:57:13.469Z,97412.48
2018-03-26T01:59:41.831Z,97411.08
2018-03-26T02:02:10.478Z,97419.23
2018-03-26T02:04:38.039Z,97421.03
2018-03-26T02:07:06.087Z,97426.41
2018-03-26T02:09:34.134Z,97418.43
2018-03-26T02:12:02.019Z,97417.72
2018-03-26T02:14:29.852Z,97418.71
2018-03-26T02:16:57.543Z,97419.92
2018-03-26T02:19:25.479Z,97413.16
2018-03-26T02:21:53.567Z,97419.64
2018-03-26T02:24:21.513Z,97415.23
2018-03-26T02:26:49.326Z,97421.80
2018-03-26T02:29:17.074Z,97424.52
2018-03-26T02:31:44.763Z,97422.05
2018-03-26T02:34:12.830Z,97429.77
2018-03-26T02:36:40.602Z,97424.94
2018-03-26T02:39:08.137Z,97427.55
2018-03-26T02:41:35.894Z,97435.28
2018-03-26T02:44:03.506Z,97437.42
2018-03-26T02:46:31.265Z,97440.80
2018-03-26T02:48:59.064Z,97428.66
2018-03-26T02:51:27.305Z,97434.28
2018-03-26T02:53:55.184Z,97437.78
2018-03-26T02:56:22.815Z,97437.84
2018-03-26T02:58:50.645Z,97437.33
2018-03-26T03:01:18.455Z,97437.06
2018-03-26T03:03:46.152Z,97436.39
2018-03-26T03:06:14.065Z,97444.69
2018-03-26T03:08:41.793Z,97446.92
2018-03-26T03:11:09.484Z,97436.72
2018-03-26T03:13:37.162Z,97445.77
2018-03-26T03:16:05.009Z,97452.15
2018-03-26T03:18:32.804Z,97447.88
2018-03-26T03:21:00.627Z,97451.67
2018-03-26T03:23:28.517Z,97446.21
2018-03-26T03:25:56.433Z,97441.75
2018-03-26T03:28:24.162Z,97449.71
2018-03-26T03:30:51.960Z,97449.31
2018-03-26T03:33:19.728Z,97450.41
2018-03-26T03:35:47.444Z,97448.83
2018-03-26T03:38:15.014Z,97456.58
2018-03-26T03:40:42.953Z,97457.09
2018-03-26T03:43:10.533Z,97460.02
2018-03-26T03:45:38.974Z,97459.63
2018-03-26T03:48:06.542Z,97467.84
2018-03-26T03:50:35.143Z,97468.73
2018-03-26T03:53:03.364Z,97467.06
2018-03-26T03:55:32.228Z,97471.77
2018-03-26T03:57:59.956Z,97473.38
2018-03-26T04:00:27.909Z,97472.39
2018-03-26T04:02:56.317Z,97478.95
2018-03-26T04:05:24.054Z,97472.81
2018-03-26T04:07:52.422Z,97471.94
2018-03-26T04:10:20.934Z,97473.55
2018-03-26T04:12:48.768Z,97477.10
2018-03-26T04:15:16.503Z,97484.76
2018-03-26T04:17:44.634Z,97487.58
2018-03-26T04:20:12.193Z,97480.61
2018-03-26T04:22:40.265Z,97485.23
2018-03-26T04:25:08.152Z,97478.11
2018-03-26T04:27:35.964Z,97485.39
2018-03-26T04:30:04.149Z,97492.53
2018-03-26T04:32:32.164Z,97493.23
2018-03-26T04:35:00.127Z,97491.70
2018-03-26T04:37:27.702Z,97497.45
2018-03-26T04:39:55.682Z,97500.87
2018-03-26T04:42:23.363Z,97501.13
2018-03-26T04:44:51.132Z,97499.19
2018-03-26T04:47:18.848Z,97499.16
2018-03-26T04:49:46.905Z,97502.86
2018-03-26T04:52:14.507Z,97513.13
2018-03-26T04:54:42.468Z,97506.59
2018-03-26T04:57:10.494Z,97509.42
2018-03-26T04:59:39.062Z,97506.25
2018-03-26T05:02:06.608Z,97511.28
2018-03-26T05:04:34.414Z,97519.48
2018-03-26T05:07:02.160Z,97518.05
2018-03-26T05:09:29.959Z,97523.55
2018-03-26T05:11:57.626Z,97539.48
2018-03-26T05:14:25.298Z,97535.89
2018-03-26T05:16:52.951Z,97533.46
2018-03-26T05:19:20.762Z,97533.41
2018-03-26T05:21:48.513Z,97540.60
2018-03-26T05:24:16.607Z,97540.19
2018-03-26T05:26:44.941Z,97533.99
2018-03-26T05:29:12.478Z,97537.41
2018-03-26T05:31:40.483Z,97533.77
2018-03-26T05:34:08.629Z,97533.45
2018-03-26T05:36:36.438Z,97541.84
2018-03-26T05:39:04.359Z,97541.58
2018-03-26T05:41:32.289Z,97550.05
2018-03-26T05:44:00.163Z,97544.27
2018-03-26T05:46:27.832Z,97544.59
2018-03-26T05:48:55.804Z,97554.42
2018-03-26T05:51:23.421Z,97557.67
2018-03-26T05:53:51.028Z,97553.09
2018-03-26T05:56:18.802Z,97551.05
2018-03-26T05:58:46.841Z,97554.61
2018-03-26T06:01:14.822Z,97561.15
2018-03-26T06:03:42.700Z,97565.50
2018-03-26T06:06:10.532Z,97569.55
2018-03-26T06:08:38.703Z,97571.02
2018-03-26T06:11:06.408Z,97570.11
2018-03-26T06:13:34.503Z,97574.83
2018-03-26T06:16:02.802Z,97573.19
2018-03-26T06:18:30.783Z,97581.02
2018-03-26T06:20:58.594Z,97581.58
2018-03-26T06:23:26.155Z,97586.50
2018-03-26T06:25:54.088Z,97589.45
2018-03-26T06:28:21.836Z,97587.89
2018-03-26T06:30:49.594Z,97588.41
2018-03-26T06:33:17.816Z,97593.11
2018-03-26T06:35:46.088Z,97592.53
2018-03-26T06:38:33.512Z,97600.36
2018-03-26T06:41:02.508Z,97602.78
2018-03-26T06:43:30.357Z,97602.00
2018-03-26T06:45:58.097Z,97604.93
2018-03-26T06:48:25.903Z,97609.04
2018-03-26T06:50:54.518Z,97608.28
2018-03-26T06:53:22.262Z,97613.91
2018-03-26T06:55:49.977Z,97617.44
2018-03-26T06:58:17.846Z,97616.88
2018-03-26T07:00:45.414Z,97620.56
2018-03-26T07:03:13.331Z,97623.45
2018-03-26T07:05:41.043Z,97627.52
2018-03-26T07:08:09.773Z,97632.96
2018-03-26T07:10:37.400Z,97635.04
2018-03-26T07:13:05.142Z,97625.73
2018-03-26T07:15:32.913Z,97633.09
2018-03-26T07:18:00.647Z,97638.58
2018-03-26T07:20:28.637Z,97638.60
2018-03-26T07:22:56.168Z,97637.93
2018-03-26T07:25:23.755Z,97644.77
2018-03-26T07:27:51.742Z,97642.44
2018-03-26T07:30:19.373Z,97643.77
2018-03-26T07:32:47.202Z,97651.53
2018-03-26T07:35:14.916Z,97648.16
2018-03-26T07:37:43.009Z,97652.30
2018-03-26T07:40:11.047Z,97653.80
2018-03-26T07:42:38.946Z,97663.42
2018-03-26T07:45:06.697Z,97660.12
2018-03-26T07:47:34.444Z,97666.30
2018-03-26T07:50:03.313Z,97670.11
2018-03-26T07:52:31.208Z,97664.97
2018-03-26T07:54:59.852Z,97671.32
2018-03-26T07:57:28.538Z,97671.29
2018-03-26T07:59:56.252Z,97675.05
2018-03-26T08:02:23.962Z,97681.15
2018-03-26T08:04:51.607Z,97682.60
2018-03-26T08:07:19.878Z,97685.78
2018-03-26T08:09:47.728Z,97686.53
2018-03-26T08:12:15.860Z,97689.56
2018-03-26T08:14:43.701Z,97695.20
2018-03-26T08:17:11.626Z,97695.98
2018-03-26T08:19:39.499Z,97702.10
2018-03-26T08:22:07.187Z,97697.35
2018-03-26T08:24:35.498Z,97702.80
2018-03-26T08:27:03.085Z,97701.09
2018-03-26T08:29:30.805Z,97696.21
2018-03-26T08:31:58.427Z,97706.06
2018-03-26T08:34:26.533Z,97698.89
2018-03-26T08:36:54.354Z,97704.30
2018-03-26T08:39:22.250Z,97707.16
2018-03-26T08:41:49.925Z,97717.39
2018-03-26T08:44:17.754Z,97715.29
2018-03-26T08:46:45.986Z,97707.52
2018-03-26T08:49:14.052Z,97715.40
2018-03-26T08:51:41.860Z,97715.08
2018-03-26T08:54:09.668Z,97710.97
2018-03-26T08:56:37.329Z,97713.32
2018-03-26T08:59:05.083Z,97716.06
2018-03-26T09:01:33.407Z,97715.32
2018-03-26T09:04:01.339Z,97712.43
2018-03-26T09:06:29.389Z,97719.22
2018-03-26T09:08:56.952Z,97722.82
2018-03-26T09:11:25.183Z,97729.77
2018-03-26T09:13:52.869Z,97724.07
2018-03-26T09:16:20.627Z,97723.42
2018-03-26T09:18:48.395Z,97734.12
2018-03-26T09:21:16.489Z,97732.67
2018-03-26T09:23:44.443Z,97734.25
2018-03-26T09:26:12.547Z,97727.11
2018-03-26T09:28:40.774Z,97731.64
2018-03-26T09:31:08.409Z,97727.86
2018-03-26T09:33:35.983Z,97733.83
2018-03-26T09:36:04.142Z,97738.56
2018-03-26T09:38:31.944Z,97740.19
2018-03-26T09:40:59.752Z,97733.44
2018-03-26T09:43:27.694Z,97734.62
2018-03-26T09:45:56.262Z,97741.98
2018-03-26T09:48:23.932Z,97740.74
2018-03-26T09:50:52.108Z,97744.09
2018-03-26T09:53:20.456Z,97731.97
2018-03-26T09:55:48.747Z,97738.53
2018-03-26T09:58:16.438Z,97743.67
2018-03-26T10:00:48.968Z,97749.20
2018-03-26T10:03:16.654Z,97748.86
2018-03-26T10:05:44.823Z,97753.11
2018-03-26T10:08:13.253Z,97753.45
2018-03-26T10:10:41.790Z,97755.02
2018-03-26T10:13:10.012Z,97752.53
2018-03-26T10:15:38.993Z,97751.58
2018-03-26T10:18:06.806Z,97748.70
2018-03-26T10:20:34.414Z,97754.66
2018-03-26T10:23:02.329Z,97745.90
2018-03-26T10:25:30.778Z,97760.67
2018-03-26T10:27:58.414Z,97752.28
2018-03-26T10:30:26.047Z,97751.45
2018-03-26T10:32:53.728Z,97753.41
2018-03-26T10:35:21.558Z,97756.04
2018-03-26T10:37:49.501Z,97764.11
2018-03-26T10:40:17.472Z,97759.41
2018-03-26T10:42:45.383Z,97761.11
2018-03-26T10:45:13.099Z,97760.11
2018-03-26T10:47:40.807Z,97771.11
2018-03-26T10:50:08.602Z,97770.33
2018-03-26T10:52:36.411Z,97763.13
2018-03-26T10:55:04.116Z,97758.25
2018-03-26T10:57:31.676Z,97761.22
2018-03-26T10:59:59.434Z,97760.75
2018-03-26T11:02:27.118Z,97759.77
2018-03-26T11:04:54.817Z,97758.11
2018-03-26T11:07:23.566Z,97759.46
2018-03-26T11:09:51.156Z,97761.15
2018-03-26T11:12:18.951Z,97765.92
2018-03-26T11:14:46.608Z,97760.98
2018-03-26T11:17:14.381Z,97756.29
2018-03-26T11:19:42.259Z,97765.55
2018-03-26T11:22:15.463Z,97764.53
2018-03-26T11:24:44.081Z,97770.09
2018-03-26T11:27:12.828Z,97767.94
2018-03-26T11:29:40.843Z,97769.73
2018-03-26T11:32:09.374Z,97764.00
2018-03-26T11:34:37.173Z,97761.20
2018-03-26T11:37:04.911Z,97761.11
2018-03-26T11:39:32.867Z,97762.34
2018-03-26T11:42:00.728Z,97759.97
2018-03-26T11:44:28.601Z,97763.92
2018-03-26T11:46:56.764Z,97761.55
2018-03-26T11:49:24.751Z,97767.52
2018-03-26T11:51:52.726Z,97762.98
2018-03-26T11:54:20.687Z,97762.79
2018-03-26T11:56:48.262Z,97764.95
2018-03-26T11:59:16.448Z,97770.84
2018-03-26T12:01:44.446Z,97769.61
2018-03-26T12:04:12.162Z,97769.05
2018-03-26T12:06:40.256Z,97768.33
2018-03-26T12:09:08.556Z,97762.55
2018-03-26T12:11:38.904Z,97764.55
2018-03-26T12:14:06.912Z,97765.98
2018-03-26T12:16:34.748Z,97771.71
2018-03-26T12:19:02.322Z,97762.49
2018-03-26T12:21:30.053Z,97771.48
2018-03-26T12:24:09.827Z,97765.42
2018-03-26T12:26:37.558Z,97770.97
2018-03-26T12:29:17.121Z,97765.69
2018-03-26T12:31:44.941Z,97775.11
2018-03-26T12:34:24.814Z,97774.38
2018-03-26T12:36:52.672Z,97772.02
2018-03-26T12:39:20.257Z,97764.33
2018-03-26T12:41:48.012Z,97768.48
2018-03-26T12:44:27.773Z,97769.28
2018-03-26T12:46:56.083Z,97769.22
2018-03-26T12:49:23.816Z,97764.23
2018-03-26T12:54:53.838Z,97776.16
2018-03-26T12:57:33.258Z,97774.30
2018-03-26T13:00:01.143Z,97767.42
2018-03-26T13:02:28.828Z,97772.55
2018-03-26T13:04:56.747Z,97768.77
2018-03-26T13:07:24.652Z,97774.80
2018-03-26T13:09:52.813Z,97776.59
2018-03-26T13:12:20.869Z,97779.61
2018-03-26T13:14:48.977Z,97777.48
2018-03-26T13:17:16.621Z,97780.63
2018-03-26T13:19:44.392Z,97773.30
2018-03-26T13:22:13.046Z,97774.07
2018-03-26T13:24:41.402Z,97776.53
2018-03-26T13:27:09.203Z,97773.98
2018-03-26T13:29:37.129Z,97769.20
2018-03-26T13:32:05.119Z,97777.42
2018-03-26T13:34:32.847Z,97778.84
2018-03-26T13:37:00.752Z,97775.30
2018-03-26T13:39:28.452Z,97779.78
2018-03-26T13:41:56.537Z,97779.33
2018-03-26T13:44:24.414Z,97780.88
2018-03-26T13:46:52.398Z,97786.88
2018-03-26T13:49:20.436Z,97786.77
2018-03-26T13:51:48.327Z,97787.47
2018-03-26T13:54:16.918Z,97789.63
2018-03-26T13:56:44.626Z,97796.31
2018-03-26T13:59:12.430Z,97793.16
2018-03-26T14:01:40.161Z,97796.63
2018-03-26T14:04:07.926Z,97792.63
2018-03-26T14:06:35.501Z,97795.46
2018-03-26T14:09:15.088Z,97801.60
2018-03-26T14:11:54.881Z,97803.75
2018-03-26T14:14:34.611Z,97798.91
2018-03-26T14:17:14.494Z,97810.16
2018-03-26T14:19:42.262Z,97805.36
2018-03-26T14:22:09.838Z,97809.56
2018-03-26T14:24:37.493Z,97804.25
2018-03-26T14:27:05.391Z,97813.56
2018-03-26T14:29:33.210Z,97812.95
2018-03-26T14:32:01.032Z,97820.61
2018-03-26T14:34:28.772Z,97819.00
2018-03-26T14:36:56.592Z,97823.17
2018-03-26T14:39:24.522Z,97825.64
2018-03-26T14:41:52.365Z,97815.70
2018-03-26T14:44:20.105Z,97822.65
2018-03-26T14:46:47.813Z,97823.44
2018-03-26T14:49:15.533Z,97828.03
2018-03-26T14:51:43.456Z,97820.94
2018-03-26T14:54:11.779Z,97825.89
2018-03-26T14:56:40.518Z,97830.68
2018-03-26T14:59:08.362Z,97832.00
2018-03-26T15:01:36.353Z,97839.70
2018-03-26T15:04:04.573Z,97836.76
2018-03-26T15:06:32.307Z,97839.45
2018-03-26T15:09:00.183Z,97842.47
2018-03-26T15:11:28.031Z,97844.28
2018-03-26T15:13:55.970Z,97842.98
2018-03-26T15:16:23.737Z,97844.34
2018-03-26T15:18:51.499Z,97845.84
2018-03-26T15:21:19.153Z,97849.72
2018-03-26T15:23:47.047Z,97846.47
2018-03-26T15:26:14.688Z,97855.70
2018-03-26T15:28:42.463Z,97852.64
2018-03-26T15:31:10.357Z,97857.97
2018-03-26T15:33:38.852Z,97858.40
2018-03-26T15:36:06.672Z,97860.01
2018-03-26T15:38:34.282Z,97858.64
2018-03-26T15:41:02.400Z,97858.31
2018-03-26T15:43:30.229Z,97854.63
2018-03-26T15:45:57.937Z,97866.45
2018-03-26T15:48:25.491Z,97866.14
2018-03-26T15:50:53.272Z,97863.03
2018-03-26T15:53:20.971Z,97869.50
2018-03-26T15:55:48.740Z,97870.24
2018-03-26T15:58:16.680Z,97871.36
2018-03-26T16:00:44.301Z,97870.59
2018-03-26T16:03:17.836Z,97873.27
2018-03-26T16:05:45.552Z,97881.38
2018-03-26T16:08:13.837Z,97878.45
2018-03-26T16:10:41.552Z,97883.28
2018-03-26T16:13:09.298Z,97885.41
2018-03-26T16:15:36.945Z,97876.26
2018-03-26T16:18:04.898Z,97877.26
2018-03-26T16:20:33.977Z,97879.75
2018-03-26T16:23:01.872Z,97883.91
2018-03-26T16:25:29.973Z,97890.82
2018-03-26T16:27:57.638Z,97892.51
2018-03-26T16:30:25.507Z,97884.72
2018-03-26T16:32:53.408Z,97893.33
2018-03-26T16:35:26.757Z,97891.06
2018-03-26T16:37:54.767Z,97888.53
2018-03-26T16:40:22.541Z,97902.52
2018-03-26T16:42:54.616Z,97899.84
2018-03-26T16:45:22.552Z,97905.74
2018-03-26T16:47:51.423Z,97908.80
2018-03-26T16:50:19.297Z,97906.18
2018-03-26T16:52:46.858Z,97907.95
2018-03-26T16:55:14.602Z,97906.69
2018-03-26T16:57:42.338Z,97902.47
2018-03-26T17:00:09.966Z,97914.07
2018-03-26T17:02:37.612Z,97915.72
2018-03-26T17:05:05.354Z,97917.98
2018-03-26T17:07:33.155Z,97915.88
2018-03-26T17:10:01.233Z,97921.27
2018-03-26T17:12:29.207Z,97925.05
2018-03-26T17:14:57.296Z,97925.25
2018-03-26T17:17:25.108Z,97927.84
2018-03-26T17:19:52.761Z,97926.39
2018-03-26T17:22:20.921Z,97930.09
2018-03-26T17:24:48.768Z,97929.22
2018-03-26T17:27:16.838Z,97927.29
2018-03-26T17:29:44.720Z,97926.93
2018-03-26T17:32:12.536Z,97931.72
2018-03-26T17:34:40.294Z,97931.83
2018-03-26T17:37:08.066Z,97931.58
2018-03-26T17:39:36.011Z,97935.91
2018-03-26T17:42:04.361Z,97937.93
2018-03-26T17:44:32.096Z,97933.20
2018-03-26T17:47:00.115Z,97931.16
2018-03-26T17:49:28.066Z,97932.42
2018-03-26T17:51:55.658Z,97943.31
2018-03-26T17:54:23.537Z,97942.72
2018-03-26T17:56:51.981Z,97937.83
2018-03-26T17:59:19.714Z,97942.66
2018-03-26T18:01:47.276Z,97944.30
2018-03-26T18:04:15.767Z,97941.78
2018-03-26T18:06:43.461Z,97940.98
2018-03-26T18:09:11.278Z,97945.52
2018-03-26T18:11:38.873Z,97949.73
2018-03-26T18:14:06.624Z,97953.27
2018-03-26T18:16:34.487Z,97967.48
2018-03-26T18:19:02.066Z,97963.59
2018-03-26T18:21:29.836Z,97972.31
2018-03-26T18:23:57.422Z,97965.85
2018-03-26T18:26:26.647Z,97972.11
2018-03-26T18:28:54.448Z,97979.34
2018-03-26T18:31:22.509Z,97977.20
2018-03-26T18:33:50.302Z,97980.88
2018-03-26T18:36:17.996Z,97981.13
2018-03-26T18:38:45.786Z,97983.70
2018-03-26T18:41:13.677Z,97981.12
2018-03-26T18:43:41.367Z,97983.48
2018-03-26T18:46:09.111Z,97988.86
2018-03-26T18:48:36.885Z,97986.36
2018-03-26T18:51:04.443Z,97992.64
2018-03-26T18:53:32.167Z,97990.59
2018-03-26T18:56:00.088Z,97992.05
2018-03-26T18:58:28.015Z,97997.02
2018-03-26T19:00:55.946Z,97994.30
2018-03-26T19:03:23.724Z,98000.02
2018-03-26T19:05:51.671Z,97996.69
2018-03-26T19:08:19.633Z,98002.41
2018-03-26T19:10:47.801Z,98001.17
2018-03-26T19:13:15.636Z,98001.07
2018-03-26T19:15:43.404Z,98003.09
2018-03-26T19:18:12.286Z,98005.18
2018-03-26T19:20:40.152Z,98006.13
2018-03-26T19:23:08.051Z,98001.09
2018-03-26T19:25:35.632Z,97995.97
2018-03-26T19:28:03.287Z,98002.39
2018-03-26T19:30:31.488Z,98002.94
2018-03-26T19:32:59.512Z,98004.95
2018-03-26T19:35:27.498Z,98015.11
2018-03-26T19:37:55.623Z,98010.46
2018-03-26T19:40:23.716Z,98019.41
2018-03-26T19:42:51.892Z,98020.45
2018-03-26T19:45:20.842Z,98022.69
2018-03-26T19:47:48.641Z,98028.73
2018-03-26T19:50:16.299Z,98028.33
2018-03-26T19:52:44.755Z,98027.53
2018-03-26T19:55:12.361Z,98030.84
2018-03-26T19:57:40.387Z,98035.72
2018-03-26T20:00:08.347Z,98030.03
2018-03-26T20:02:36.035Z,98033.25
2018-03-26T20:05:03.888Z,98031.57
2018-03-26T20:07:31.677Z,98036.59
2018-03-26T20:09:59.507Z,98032.77
2018-03-26T20:12:27.884Z,98032.65
2018-03-26T20:14:56.577Z,98039.45
2018-03-26T20:17:24.296Z,98037.05
2018-03-26T20:19:52.006Z,98042.21
2018-03-26T20:22:20.693Z,98041.22
2018-03-26T20:24:48.538Z,98038.66
2018-03-26T20:27:16.187Z,98045.19
2018-03-26T20:29:43.903Z,98049.14
2018-03-26T20:32:11.801Z,98051.48
2018-03-26T20:34:39.588Z,98050.03
2018-03-26T20:37:08.328Z,98048.05
2018-03-26T20:39:36.042Z,98045.23
2018-03-26T20:42:03.869Z,98043.66
2018-03-26T20:44:31.745Z,98048.97
2018-03-26T20:47:00.406Z,98049.07
2018-03-26T20:49:27.972Z,98047.20
2018-03-26T20:51:55.696Z,98045.55
2018-03-26T20:54:23.416Z,98045.61
2018-03-26T20:56:51.745Z,98039.88
2018-03-26T20:59:19.503Z,98039.14
2018-03-26T21:01:47.230Z,98038.81
2018-03-26T21:04:15.017Z,98036.67
2018-03-26T21:06:42.664Z,98041.14
2018-03-26T21:09:10.621Z,98039.94
2018-03-26T21:11:38.387Z,98038.92
2018-03-26T21:14:06.402Z,98029.61
2018-03-26T21:16:34.370Z,98038.45
2018-03-26T21:19:02.123Z,98032.89
2018-03-26T21:21:29.691Z,98031.47
2018-03-26T21:23:57.394Z,98032.03
2018-03-26T21:26:25.927Z,98031.64
2018-03-26T21:28:53.578Z,98031.70
2018-03-26T21:31:21.203Z,98028.25
2018-03-26T21:33:49.219Z,98027.67
2018-03-26T21:36:16.972Z,98036.08
2018-03-26T21:38:44.737Z,98036.98
2018-03-26T21:41:12.415Z,98030.01
2018-03-26T21:43:40.138Z,98033.16
2018-03-26T21:46:07.908Z,98039.47
2018-03-26T21:48:36.181Z,98039.45
2018-03-26T21:51:03.849Z,98041.75
2018-03-26T21:53:31.556Z,98041.39
2018-03-26T21:55:59.275Z,98042.02
2018-03-26T21:58:27.193Z,98042.98
2018-03-26T22:00:54.928Z,98046.10
2018-03-26T22:03:22.657Z,98042.63
2018-03-26T22:05:50.552Z,98051.27
2018-03-26T22:08:18.308Z,98054.27
2018-03-26T22:10:46.281Z,98044.84
2018-03-26T22:13:14.017Z,98042.42
2018-03-26T22:15:41.607Z,98045.91
2018-03-26T22:18:09.213Z,98038.11
2018-03-26T22:20:37.035Z,98037.90
2018-03-26T22:23:04.645Z,98043.28
2018-03-26T22:25:32.571Z,98045.66
2018-03-26T22:28:00.377Z,98040.98
2018-03-26T22:30:28.208Z,98043.26
2018-03-26T22:32:55.970Z,98047.84
2018-03-26T22:35:23.672Z,98039.39
2018-03-26T22:37:51.643Z,98038.91
2018-03-26T22:40:19.538Z,98039.13
2018-03-26T22:42:47.221Z,98037.65
2018-03-26T22:45:15.261Z,98035.41
2018-03-26T22:47:42.893Z,98044.16
2018-03-26T22:50:10.886Z,98043.41
2018-03-26T22:52:38.437Z,98040.23
2018-03-26T22:55:06.164Z,98037.30
2018-03-26T22:57:34.127Z,98039.58
2018-03-26T23:00:01.833Z,98042.71
2018-03-26T23:02:29.703Z,98042.56
2018-03-26T23:04:57.632Z,98042.82
2018-03-26T23:07:25.403Z,98042.76
2018-03-26T23:09:53.136Z,98039.31
2018-03-26T23:12:20.817Z,98041.77
2018-03-26T23:14:49.832Z,98040.88
2018-03-26T23:17:17.757Z,98039.23
2018-03-26T23:19:45.677Z,98041.41
2018-03-26T23:22:13.392Z,98038.86
2018-03-26T23:24:41.372Z,98037.61
2018-03-26T23:27:09.388Z,98038.09
2018-03-26T23:29:37.080Z,98040.88
2018-03-26T23:32:04.750Z,98040.92
2018-03-26T23:34:32.566Z,98038.52
2018-03-26T23:37:01.035Z,98036.83
2018-03-26T23:39:28.696Z,98039.25
2018-03-26T23:41:56.373Z,98042.89
2018-03-26T23:44:24.813Z,98039.99
2018-03-26T23:46:52.444Z,98036.72
2018-03-26T23:49:20.252Z,98035.37
2018-03-26T23:51:47.940Z,98031.16
2018-03-26T23:54:15.951Z,98032.72
2018-03-26T23:56:43.832Z,98031.64
2018-03-26T23:59:11.731Z,98030.75
